createdAt,value
2017-10-04T00:01:06.474Z,23.43
2017-10-04T00:03:34.068Z,15.90
2017-10-04T00:06:01.736Z,20.97
2017-10-04T00:08:29.302Z,18.93
2017-10-04T00:10:57.010Z,13.87
2017-10-04T00:13:24.763Z,16.50
2017-10-04T00:15:52.391Z,14.90
2017-10-04T00:18:20.008Z,16.93
2017-10-04T00:20:47.630Z,20.00
2017-10-04T00:23:15.329Z,17.27
2017-10-04T00:25:42.913Z,14.80
2017-10-04T00:28:11.291Z,14.10
2017-10-04T00:30:38.895Z,13.70
2017-10-04T00:33:06.784Z,16.93
2017-10-04T00:35:35.213Z,13.20
2017-10-04T00:38:02.789Z,26.97
2017-10-04T00:40:31.020Z,19.33
2017-10-04T00:42:59.386Z,12.27
2017-10-04T00:45:27.003Z,14.90
2017-10-04T00:47:54.586Z,20.23
2017-10-04T00:50:22.549Z,17.60
2017-10-04T00:52:50.181Z,18.40
2017-10-04T00:55:17.803Z,23.13
2017-10-04T00:57:46.183Z,21.53
2017-10-04T01:00:14.556Z,21.53
2017-10-04T01:02:42.923Z,17.67
2017-10-04T01:05:10.545Z,15.43
2017-10-04T01:07:38.164Z,16.43
2017-10-04T01:10:05.757Z,20.93
2017-10-04T01:12:33.465Z,24.20
2017-10-04T01:15:01.037Z,27.93
2017-10-04T01:17:28.635Z,14.40
2017-10-04T01:19:56.244Z,19.67
2017-10-04T01:22:23.825Z,20.03
2017-10-04T01:24:52.206Z,19.50
2017-10-04T01:27:19.807Z,18.33
2017-10-04T01:29:47.407Z,31.93
2017-10-04T01:32:14.997Z,18.90
2017-10-04T01:34:42.606Z,18.00
2017-10-04T01:37:10.189Z,22.57
2017-10-04T01:39:37.799Z,19.13
2017-10-04T01:42:05.394Z,16.60
2017-10-04T01:44:33.246Z,19.60
2017-10-04T01:47:00.818Z,20.23
2017-10-04T01:49:28.473Z,25.93
2017-10-04T01:51:56.088Z,21.37
2017-10-04T01:54:23.670Z,25.43
2017-10-04T01:56:51.298Z,19.83
2017-10-04T01:59:18.985Z,20.53
2017-10-04T02:01:46.587Z,20.63
2017-10-04T02:04:14.167Z,21.57
2017-10-04T02:06:42.043Z,23.90
2017-10-04T02:09:09.711Z,25.87
2017-10-04T02:11:37.311Z,20.10
2017-10-04T02:14:04.906Z,22.33
2017-10-04T02:16:32.509Z,23.37
2017-10-04T02:19:00.130Z,21.90
2017-10-04T02:21:28.484Z,17.37
2017-10-04T02:23:56.095Z,17.60
2017-10-04T02:26:23.878Z,18.97
2017-10-04T02:28:51.469Z,19.43
2017-10-04T02:31:19.082Z,16.53
2017-10-04T02:36:20.632Z,26.57
2017-10-04T02:38:48.226Z,18.60
2017-10-04T02:41:15.823Z,15.00
2017-10-04T02:43:43.442Z,26.67
2017-10-04T02:46:11.300Z,20.53
2017-10-04T02:48:38.877Z,18.67
2017-10-04T02:51:06.450Z,14.77
2017-10-04T02:53:34.150Z,13.10
2017-10-04T02:56:01.735Z,20.03
2017-10-04T02:58:29.331Z,16.80
2017-10-04T03:00:56.927Z,21.50
2017-10-04T03:03:24.601Z,19.20
2017-10-04T03:05:53.047Z,19.80
2017-10-04T03:08:20.639Z,19.10
2017-10-04T03:10:48.986Z,16.23
2017-10-04T03:13:16.589Z,15.50
2017-10-04T03:15:44.253Z,15.83
2017-10-04T03:18:11.869Z,23.73
2017-10-04T03:20:39.477Z,22.87
2017-10-04T03:23:07.063Z,16.70
2017-10-04T03:25:34.679Z,22.57
2017-10-04T03:28:02.257Z,23.20
2017-10-04T03:30:30.587Z,17.00
2017-10-04T03:32:58.210Z,20.53
2017-10-04T03:35:25.782Z,16.20
2017-10-04T03:37:53.412Z,18.53
2017-10-04T03:40:21.008Z,18.10
2017-10-04T03:42:48.634Z,15.97
2017-10-04T03:45:16.223Z,14.63
2017-10-04T03:47:44.114Z,22.37
2017-10-04T03:50:11.708Z,19.77
2017-10-04T03:52:39.279Z,19.47
2017-10-04T03:55:06.879Z,16.93
2017-10-04T03:57:34.463Z,21.23
2017-10-04T04:00:02.074Z,21.33
2017-10-04T04:02:29.713Z,20.97
2017-10-04T04:04:57.305Z,22.27
2017-10-04T04:07:24.882Z,16.00
2017-10-04T04:09:52.526Z,18.03
2017-10-04T04:12:20.128Z,21.27
2017-10-04T04:14:48.482Z,19.23
2017-10-04T04:17:16.119Z,19.53
2017-10-04T04:19:43.704Z,19.73
2017-10-04T04:22:11.321Z,18.43
2017-10-04T04:24:39.067Z,23.57
2017-10-04T04:27:07.913Z,14.40
2017-10-04T04:29:35.501Z,19.00
2017-10-04T04:32:03.099Z,25.10
2017-10-04T04:34:30.762Z,25.13
2017-10-04T04:36:58.387Z,21.10
2017-10-04T04:39:26.767Z,28.33
2017-10-04T04:41:55.142Z,35.37
2017-10-04T04:44:22.840Z,17.03
2017-10-04T04:46:50.431Z,18.50
2017-10-04T04:49:21.348Z,15.40
2017-10-04T04:51:48.966Z,20.40
2017-10-04T04:54:16.746Z,20.60
2017-10-04T04:56:44.339Z,22.80
2017-10-04T04:59:12.224Z,25.43
2017-10-04T05:01:41.536Z,18.30
2017-10-04T05:04:10.955Z,27.20
2017-10-04T05:06:38.623Z,23.53
2017-10-04T05:09:06.227Z,20.20
2017-10-04T05:11:33.856Z,17.63
2017-10-04T05:14:01.453Z,13.80
2017-10-04T05:16:29.064Z,21.93
2017-10-04T05:18:58.928Z,26.50
2017-10-04T05:21:26.592Z,24.90
2017-10-04T05:23:54.322Z,16.13
2017-10-04T05:26:21.927Z,25.23
2017-10-04T05:28:49.535Z,22.80
2017-10-04T05:31:17.138Z,16.70
2017-10-04T05:33:44.800Z,15.40
2017-10-04T05:36:12.397Z,31.83
2017-10-04T05:38:40.019Z,21.47
2017-10-04T05:41:07.651Z,18.23
2017-10-04T05:43:35.295Z,30.80
2017-10-04T05:46:02.902Z,19.97
2017-10-04T05:48:30.505Z,22.80
2017-10-04T05:50:58.143Z,19.17
2017-10-04T05:53:25.764Z,14.90
2017-10-04T05:55:53.400Z,18.37
2017-10-04T05:58:21.003Z,17.47
2017-10-04T06:00:48.992Z,16.60
2017-10-04T06:03:16.618Z,22.13
2017-10-04T06:05:44.522Z,14.70
2017-10-04T06:08:12.176Z,19.23
2017-10-04T06:10:39.797Z,12.40
2017-10-04T06:13:07.429Z,18.87
2017-10-04T06:15:35.775Z,15.37
2017-10-04T06:18:03.421Z,19.73
2017-10-04T06:20:31.022Z,14.40
2017-10-04T06:22:59.412Z,15.90
2017-10-04T06:25:27.758Z,17.77
2017-10-04T06:27:55.404Z,20.90
2017-10-04T06:30:22.978Z,16.53
2017-10-04T06:32:50.559Z,23.93
2017-10-04T06:35:18.956Z,12.63
2017-10-04T06:37:46.696Z,19.83
2017-10-04T06:40:15.066Z,15.37
2017-10-04T06:42:42.678Z,20.50
2017-10-04T06:45:10.318Z,16.37
2017-10-04T06:47:38.099Z,16.10
2017-10-04T06:50:05.681Z,13.10
2017-10-04T06:52:33.288Z,12.57
2017-10-04T06:55:01.642Z,12.93
2017-10-04T06:57:29.261Z,13.47
2017-10-04T06:59:56.831Z,17.60
2017-10-04T07:02:24.499Z,16.33
2017-10-04T07:04:52.093Z,13.17
2017-10-04T07:07:20.690Z,13.40
2017-10-04T07:09:49.045Z,19.57
2017-10-04T07:12:16.618Z,15.67
2017-10-04T07:14:44.992Z,22.07
2017-10-04T07:17:13.354Z,15.00
2017-10-04T07:19:41.047Z,16.63
2017-10-04T07:22:09.396Z,13.70
2017-10-04T07:24:37.098Z,16.20
2017-10-04T07:27:04.738Z,19.63
2017-10-04T07:29:33.180Z,15.73
2017-10-04T07:32:00.876Z,17.93
2017-10-04T07:34:29.254Z,17.33
2017-10-04T07:36:56.860Z,17.80
2017-10-04T07:39:24.458Z,15.30
2017-10-04T07:41:52.072Z,20.87
2017-10-04T07:44:19.650Z,18.30
2017-10-04T07:46:47.247Z,17.00
2017-10-04T07:49:14.839Z,14.50
2017-10-04T07:51:42.433Z,18.10
2017-10-04T07:54:10.023Z,13.70
2017-10-04T07:56:37.666Z,15.43
2017-10-04T07:59:05.316Z,16.03
2017-10-04T08:01:32.906Z,16.10
2017-10-04T08:04:00.554Z,16.33
2017-10-04T08:06:28.178Z,11.60
2017-10-04T08:08:55.777Z,12.13
2017-10-04T08:11:23.390Z,16.00
2017-10-04T08:13:51.023Z,15.47
2017-10-04T08:16:19.419Z,13.60
2017-10-04T08:18:47.022Z,13.00
2017-10-04T08:21:14.638Z,14.90
2017-10-04T08:23:42.859Z,10.40
2017-10-04T08:26:10.458Z,11.53
2017-10-04T08:28:38.854Z,16.53
2017-10-04T08:31:06.487Z,12.53
2017-10-04T08:33:34.187Z,8.90
2017-10-04T08:36:01.774Z,11.40
2017-10-04T08:38:29.417Z,13.90
2017-10-04T08:40:57.138Z,9.47
2017-10-04T08:43:25.494Z,13.30
2017-10-04T08:45:53.227Z,13.20
2017-10-04T08:48:32.567Z,15.27
2017-10-04T08:51:00.186Z,18.60
2017-10-04T08:53:28.529Z,14.10
2017-10-04T08:55:56.134Z,16.93
2017-10-04T08:58:23.766Z,15.53
2017-10-04T09:00:51.421Z,12.37
2017-10-04T09:03:19.116Z,11.73
2017-10-04T09:05:48.561Z,14.43
2017-10-04T09:08:16.166Z,10.80
2017-10-04T09:10:44.600Z,7.17
2017-10-04T09:13:12.222Z,16.80
2017-10-04T09:15:39.887Z,11.13
2017-10-04T09:18:07.545Z,22.33
2017-10-04T09:20:35.242Z,11.23
2017-10-04T09:23:02.877Z,12.03
2017-10-04T09:25:30.490Z,13.23
2017-10-04T09:27:58.069Z,10.87
2017-10-04T09:30:26.512Z,15.20
2017-10-04T09:32:54.106Z,13.17
2017-10-04T09:35:22.783Z,15.03
2017-10-04T09:37:50.429Z,11.77
2017-10-04T09:40:18.056Z,16.03
2017-10-04T09:42:45.683Z,13.70
2017-10-04T09:45:14.050Z,9.73
2017-10-04T09:47:42.543Z,15.37
2017-10-04T09:50:10.975Z,11.70
2017-10-04T09:52:38.576Z,10.93
2017-10-04T09:55:06.999Z,13.60
2017-10-04T09:57:34.603Z,8.00
2017-10-04T10:00:02.270Z,9.97
2017-10-04T10:02:30.622Z,9.60
2017-10-04T10:04:58.178Z,14.60
2017-10-04T10:07:25.783Z,9.30
2017-10-04T10:09:54.174Z,15.93
2017-10-04T10:12:21.810Z,14.70
2017-10-04T10:14:50.313Z,13.23
2017-10-04T10:17:17.959Z,10.27
2017-10-04T10:19:46.317Z,10.53
2017-10-04T10:22:13.911Z,12.90
2017-10-04T10:24:41.551Z,10.20
2017-10-04T10:27:09.959Z,10.20
2017-10-04T10:29:37.658Z,9.33
2017-10-04T10:32:05.273Z,14.30
2017-10-04T10:34:32.934Z,9.00
2017-10-04T10:37:00.533Z,9.70
2017-10-04T10:39:28.162Z,10.60
2017-10-04T10:41:55.810Z,11.53
2017-10-04T10:44:23.466Z,12.43
2017-10-04T10:46:51.855Z,6.20
2017-10-04T10:49:19.483Z,7.23
2017-10-04T10:51:47.105Z,7.73
2017-10-04T10:54:14.782Z,13.13
2017-10-04T10:56:42.395Z,10.30
2017-10-04T10:59:10.103Z,6.00
2017-10-04T11:01:37.743Z,8.63
2017-10-04T11:04:05.318Z,7.80
2017-10-04T11:06:32.973Z,9.30
2017-10-04T11:09:00.677Z,10.70
2017-10-04T11:11:28.277Z,8.50
2017-10-04T11:13:55.869Z,10.50
2017-10-04T11:16:23.625Z,12.50
2017-10-04T11:18:51.236Z,7.20
2017-10-04T11:21:19.637Z,6.90
2017-10-04T11:23:47.244Z,7.20
2017-10-04T11:26:14.886Z,8.70
2017-10-04T11:28:42.487Z,7.37
2017-10-04T11:31:10.890Z,5.10
2017-10-04T11:33:38.480Z,9.90
2017-10-04T11:36:06.125Z,8.60
2017-10-04T11:38:33.718Z,8.50
2017-10-04T11:41:01.311Z,8.97
2017-10-04T11:43:29.707Z,11.50
2017-10-04T11:45:57.421Z,13.07
2017-10-04T11:48:25.045Z,13.83
2017-10-04T11:50:52.626Z,10.03
2017-10-04T11:53:20.323Z,9.93
2017-10-04T11:55:47.958Z,8.47
2017-10-04T11:58:15.557Z,15.17
2017-10-04T12:00:44.816Z,9.87
2017-10-04T12:03:12.406Z,14.93
2017-10-04T12:05:40.819Z,9.23
2017-10-04T12:08:08.407Z,10.53
2017-10-04T12:10:36.144Z,12.73
2017-10-04T12:13:03.783Z,10.50
2017-10-04T12:15:32.289Z,9.70
2017-10-04T12:17:59.890Z,10.60
2017-10-04T12:20:27.508Z,13.33
2017-10-04T12:22:55.199Z,6.40
2017-10-04T12:25:22.803Z,6.60
2017-10-04T12:27:51.279Z,11.13
2017-10-04T12:30:19.646Z,11.33
2017-10-04T12:32:47.238Z,7.60
2017-10-04T12:35:14.857Z,6.50
2017-10-04T12:37:42.483Z,11.87
2017-10-04T12:40:10.127Z,11.67
2017-10-04T12:42:37.795Z,8.40
2017-10-04T12:45:05.703Z,10.03
2017-10-04T12:47:33.288Z,7.90
2017-10-04T12:50:01.656Z,9.83
2017-10-04T12:52:29.307Z,3.00
2017-10-04T12:54:56.920Z,9.10
2017-10-04T12:57:24.556Z,7.87
2017-10-04T12:59:52.906Z,8.93
2017-10-04T13:02:20.522Z,8.97
2017-10-04T13:04:48.136Z,6.80
2017-10-04T13:07:16.554Z,5.63
2017-10-04T13:09:44.209Z,6.63
2017-10-04T13:12:11.856Z,9.60
2017-10-04T13:14:40.295Z,5.37
2017-10-04T13:17:07.888Z,8.20
2017-10-04T13:19:36.242Z,9.20
2017-10-04T13:22:03.933Z,7.37
2017-10-04T13:24:32.323Z,8.37
2017-10-04T13:26:59.978Z,6.30
2017-10-04T13:29:27.587Z,7.30
2017-10-04T13:31:55.440Z,4.70
2017-10-04T13:34:23.043Z,3.80
2017-10-04T13:36:50.627Z,6.50
2017-10-04T13:39:18.226Z,8.60
2017-10-04T13:41:45.867Z,6.47
2017-10-04T13:44:13.452Z,5.90
2017-10-04T13:46:41.027Z,6.53
2017-10-04T13:49:08.710Z,6.33
2017-10-04T13:51:37.072Z,5.73
2017-10-04T13:54:04.655Z,8.63
2017-10-04T13:56:33.038Z,5.53
2017-10-04T13:59:01.488Z,6.43
2017-10-04T14:01:29.189Z,9.57
2017-10-04T14:03:56.787Z,11.83
2017-10-04T14:06:24.402Z,11.27
2017-10-04T14:08:52.091Z,4.47
2017-10-04T14:11:19.710Z,6.77
2017-10-04T14:13:47.380Z,7.60
2017-10-04T14:16:15.729Z,4.60
2017-10-04T14:18:44.162Z,11.93
2017-10-04T14:21:11.814Z,6.03
2017-10-04T14:23:40.720Z,7.00
2017-10-04T14:26:08.377Z,4.97
2017-10-04T14:28:36.024Z,9.20
2017-10-04T14:31:03.998Z,7.93
2017-10-04T14:33:32.375Z,4.40
2017-10-04T14:36:00.026Z,7.93
2017-10-04T14:38:27.639Z,6.43
2017-10-04T14:40:55.261Z,7.20
2017-10-04T14:43:22.866Z,6.33
2017-10-04T14:45:50.492Z,9.70
2017-10-04T14:48:18.078Z,6.80
2017-10-04T14:50:45.739Z,6.80
2017-10-04T14:53:13.430Z,6.80
2017-10-04T14:55:41.096Z,6.50
2017-10-04T14:58:08.749Z,9.57
2017-10-04T15:00:37.173Z,6.73
2017-10-04T15:03:04.981Z,5.70
2017-10-04T15:05:32.611Z,8.80
2017-10-04T15:08:00.183Z,10.87
2017-10-04T15:10:27.821Z,7.53
2017-10-04T15:12:55.392Z,8.03
2017-10-04T15:15:22.981Z,7.00
2017-10-04T15:17:50.734Z,6.00
2017-10-04T15:20:18.311Z,5.20
2017-10-04T15:22:45.963Z,6.93
2017-10-04T15:25:13.621Z,12.40
2017-10-04T15:27:41.550Z,10.60
2017-10-04T15:30:09.198Z,6.70
2017-10-04T15:32:36.783Z,8.43
2017-10-04T15:35:04.409Z,5.97
2017-10-04T15:37:32.002Z,8.43
2017-10-04T15:39:59.611Z,5.30
2017-10-04T15:42:27.977Z,9.10
2017-10-04T15:44:55.944Z,14.13
2017-10-04T15:47:23.561Z,16.00
2017-10-04T15:49:51.171Z,10.90
2017-10-04T15:52:19.572Z,6.80
2017-10-04T15:54:47.963Z,9.17
2017-10-04T15:57:15.670Z,10.40
2017-10-04T15:59:44.136Z,4.43
2017-10-04T16:02:12.095Z,5.37
2017-10-04T16:04:39.739Z,9.53
2017-10-04T16:07:07.340Z,6.40
2017-10-04T16:09:34.948Z,7.80
2017-10-04T16:12:04.007Z,7.33
2017-10-04T16:14:31.631Z,6.40
2017-10-04T16:16:59.225Z,8.17
2017-10-04T16:19:27.119Z,7.00
2017-10-04T16:21:55.473Z,9.70
2017-10-04T16:24:23.059Z,6.47
2017-10-04T16:26:51.452Z,7.73
2017-10-04T16:29:19.049Z,8.53
2017-10-04T16:31:46.712Z,7.90
2017-10-04T16:34:14.359Z,11.90
2017-10-04T16:36:41.968Z,8.60
2017-10-04T16:39:10.297Z,11.90
2017-10-04T16:41:39.660Z,5.47
2017-10-04T16:44:07.247Z,11.77
2017-10-04T16:46:34.887Z,10.43
2017-10-04T16:49:02.492Z,8.17
2017-10-04T16:51:30.106Z,11.30
2017-10-04T16:53:57.771Z,8.20
2017-10-04T16:56:25.397Z,9.43
2017-10-04T16:58:53.342Z,7.80
2017-10-04T17:01:20.916Z,8.13
2017-10-04T17:03:48.524Z,11.63
2017-10-04T17:06:16.122Z,9.50
2017-10-04T17:08:43.710Z,9.03
2017-10-04T17:11:11.362Z,9.70
2017-10-04T17:13:39.063Z,7.93
2017-10-04T17:16:07.012Z,7.30
2017-10-04T17:18:35.423Z,10.23
2017-10-04T17:21:03.020Z,12.20
2017-10-04T17:23:30.712Z,8.33
2017-10-04T17:25:58.276Z,15.43
2017-10-04T17:28:26.681Z,10.10
2017-10-04T17:30:54.300Z,8.80
2017-10-04T17:33:22.279Z,9.87
2017-10-04T17:35:50.759Z,11.53
2017-10-04T17:38:18.394Z,10.93
2017-10-04T17:40:46.026Z,17.27
2017-10-04T17:43:14.416Z,16.50
2017-10-04T17:45:42.073Z,18.63
2017-10-04T17:48:09.665Z,13.30
2017-10-04T17:50:37.279Z,14.10
2017-10-04T17:53:04.903Z,16.37
2017-10-04T17:55:33.800Z,14.00
2017-10-04T17:58:02.164Z,11.17
2017-10-04T18:00:29.824Z,17.00
2017-10-04T18:02:57.434Z,13.37
2017-10-04T18:05:25.141Z,14.60
2017-10-04T18:07:52.812Z,13.77
2017-10-04T18:10:21.201Z,13.37
2017-10-04T18:12:50.681Z,10.47
2017-10-04T18:15:18.302Z,11.13
2017-10-04T18:17:47.599Z,20.53
2017-10-04T18:20:15.304Z,20.47
2017-10-04T18:22:42.924Z,18.80
2017-10-04T18:25:10.551Z,19.40
2017-10-04T18:27:38.323Z,18.27
2017-10-04T18:30:07.075Z,20.27
2017-10-04T18:32:36.020Z,16.30
2017-10-04T18:35:03.848Z,14.70
2017-10-04T18:37:31.526Z,19.20
2017-10-04T18:39:59.884Z,13.13
2017-10-04T18:42:28.326Z,11.53
2017-10-04T18:44:56.283Z,20.83
2017-10-04T18:47:24.291Z,16.90
2017-10-04T18:49:52.030Z,10.57
2017-10-04T18:52:19.866Z,28.03
2017-10-04T18:54:48.411Z,16.37
2017-10-04T18:57:16.288Z,20.77
2017-10-04T18:59:44.012Z,18.93
2017-10-04T19:02:11.716Z,11.30
2017-10-04T19:04:40.476Z,13.80
2017-10-04T19:07:08.125Z,12.83
2017-10-04T19:09:35.738Z,14.50
2017-10-04T19:12:03.410Z,8.40
2017-10-04T19:14:31.124Z,10.77
2017-10-04T19:16:58.719Z,11.13
2017-10-04T19:19:26.319Z,17.97
2017-10-04T19:21:54.285Z,6.20
2017-10-04T19:24:21.975Z,10.63
2017-10-04T19:26:49.583Z,11.90
2017-10-04T19:29:17.174Z,11.30
2017-10-04T19:31:44.852Z,18.33
2017-10-04T19:34:12.507Z,8.70
2017-10-04T19:36:43.917Z,8.30
2017-10-04T19:39:12.502Z,11.60
2017-10-04T19:41:40.265Z,14.80
2017-10-04T19:44:07.987Z,13.03
2017-10-04T19:46:35.690Z,18.53
2017-10-04T19:49:03.322Z,13.50
2017-10-04T19:51:31.705Z,14.80
2017-10-04T19:54:00.087Z,13.50
2017-10-04T19:56:28.860Z,15.20
2017-10-04T19:58:57.362Z,13.47
2017-10-04T20:01:25.010Z,15.23
2017-10-04T20:03:53.413Z,20.00
2017-10-04T20:06:21.143Z,14.23
2017-10-04T20:08:49.305Z,12.27
2017-10-04T20:11:16.900Z,16.50
2017-10-04T20:13:44.727Z,14.17
2017-10-04T20:16:12.356Z,15.33
2017-10-04T20:18:40.079Z,12.43
2017-10-04T20:21:08.450Z,8.27
2017-10-04T20:23:36.147Z,18.70
2017-10-04T20:26:03.806Z,13.80
2017-10-04T20:28:31.414Z,9.37
2017-10-04T20:30:59.191Z,8.30
2017-10-04T20:33:26.863Z,9.27
2017-10-04T20:35:54.486Z,13.27
2017-10-04T20:38:22.456Z,8.43
2017-10-04T20:40:50.045Z,8.20
2017-10-04T20:43:17.668Z,11.40
2017-10-04T20:45:45.331Z,14.27
2017-10-04T20:48:12.967Z,17.10
2017-10-04T20:50:40.591Z,12.63
2017-10-04T20:53:08.238Z,14.33
2017-10-04T20:55:36.343Z,14.40
2017-10-04T20:58:03.955Z,15.80
2017-10-04T21:00:31.551Z,20.07
2017-10-04T21:02:59.229Z,14.43
2017-10-04T21:05:26.863Z,12.90
2017-10-04T21:07:55.285Z,17.30
2017-10-04T21:10:22.956Z,12.90
2017-10-04T21:12:50.823Z,21.73
2017-10-04T21:15:18.437Z,19.77
2017-10-04T21:17:46.115Z,13.40
2017-10-04T21:20:14.521Z,27.13
2017-10-04T21:22:42.120Z,14.67
2017-10-04T21:25:09.777Z,15.27
2017-10-04T21:27:37.442Z,12.93
2017-10-04T21:30:05.369Z,12.93
2017-10-04T21:32:32.962Z,14.50
2017-10-04T21:35:00.601Z,16.23
2017-10-04T21:37:28.294Z,16.33
2017-10-04T21:39:55.895Z,11.10
2017-10-04T21:42:23.515Z,11.73
2017-10-04T21:44:51.140Z,12.03
2017-10-04T21:47:18.997Z,9.93
2017-10-04T21:49:46.586Z,17.10
2017-10-04T21:52:14.239Z,11.80
2017-10-04T21:54:41.871Z,15.63
2017-10-04T21:57:09.478Z,16.83
2017-10-04T21:59:37.081Z,12.80
2017-10-04T22:02:05.101Z,8.63
2017-10-04T22:04:32.802Z,11.23
2017-10-04T22:07:00.409Z,12.77
2017-10-04T22:09:28.016Z,8.47
2017-10-04T22:11:55.644Z,8.73
2017-10-04T22:14:23.495Z,8.73
2017-10-04T22:16:51.248Z,14.70
2017-10-04T22:19:18.871Z,8.87
2017-10-04T22:21:46.538Z,18.60
2017-10-04T22:24:14.158Z,13.43
2017-10-04T22:26:41.763Z,16.93
2017-10-04T22:29:09.374Z,16.77
2017-10-04T22:31:37.241Z,12.00
2017-10-04T22:34:04.815Z,7.07
2017-10-04T22:36:32.442Z,12.03
2017-10-04T22:39:00.081Z,8.37
2017-10-04T22:41:27.675Z,7.13
2017-10-04T22:43:55.335Z,9.83
2017-10-04T22:46:22.975Z,16.00
2017-10-04T22:48:50.847Z,11.43
2017-10-04T22:51:18.436Z,8.27
2017-10-04T22:53:46.182Z,12.93
2017-10-04T22:56:13.795Z,12.93
2017-10-04T22:58:41.363Z,9.90
2017-10-04T23:01:08.965Z,13.17
2017-10-04T23:03:36.561Z,10.97
2017-10-04T23:06:05.214Z,9.80
2017-10-04T23:08:32.783Z,9.23
2017-10-04T23:11:00.382Z,17.13
2017-10-04T23:13:28.095Z,24.63
2017-10-04T23:15:55.688Z,15.10
2017-10-04T23:18:24.051Z,11.40
2017-10-04T23:20:51.675Z,12.07
2017-10-04T23:23:19.574Z,9.70
2017-10-04T23:25:47.168Z,8.00
2017-10-04T23:28:14.763Z,10.10
2017-10-04T23:30:42.465Z,16.13
2017-10-04T23:33:10.093Z,8.10
2017-10-04T23:35:37.692Z,10.23
2017-10-04T23:38:06.054Z,11.57
2017-10-04T23:40:34.005Z,12.67
2017-10-04T23:43:01.597Z,11.70
2017-10-04T23:45:29.943Z,17.60
2017-10-04T23:47:57.566Z,13.30
2017-10-04T23:50:25.930Z,12.43
2017-10-04T23:52:53.549Z,18.53
2017-10-04T23:55:21.174Z,18.30
2017-10-04T23:57:49.019Z,16.47
